Time;durP1;ratioP1;P1;durP2;ratioP2;P2;SDS_P1;SDS_P2;PMS_P1;PMS_P2;Temp;Humidity;BMP_temperature;BMP_pressure;BME280_temperature;BME280_humidity;BME280_pressure;Samples;Min_cycle;Max_cycle;Signal;HPM_P1;HPM_P2
2021/09/23 00:02:46;;;;;;;17.90;7.30;;;10.60;99.90;;;;;;5249498;28;20212;-66
2021/09/23 00:05:25;;;;;;;15.27;6.60;;;10.60;99.90;;;;;;5249208;28;20212;-67
2021/09/23 00:07:58;;;;;;;21.93;7.20;;;10.70;99.90;;;;;;5248154;28;20224;-67
2021/09/23 00:10:36;;;;;;;19.27;5.83;;;10.70;99.90;;;;;;5249445;28;20605;-67
2021/09/23 00:13:08;;;;;;;18.10;6.33;;;10.80;99.90;;;;;;5249027;28;20307;-67
2021/09/23 00:15:41;;;;;;;27.20;6.70;;;10.80;99.90;;;;;;5249031;28;20205;-67
2021/09/23 00:18:15;;;;;;;20.10;5.80;;;10.80;99.90;;;;;;5248034;28;20246;-70
2021/09/23 00:20:51;;;;;;;19.57;6.63;;;10.90;99.90;;;;;;5249292;28;20280;-67
2021/09/23 00:23:25;;;;;;;20.60;6.10;;;10.90;99.90;;;;;;5248398;28;20428;-66
2021/09/23 00:25:57;;;;;;;20.97;6.10;;;11.00;99.90;;;;;;5247721;28;20624;-67
2021/09/23 00:28:29;;;;;;;18.07;5.70;;;11.00;99.90;;;;;;5248869;28;20228;-69
2021/09/23 00:31:01;;;;;;;19.73;5.60;;;11.00;99.90;;;;;;5248961;28;20266;-65
2021/09/23 00:33:33;;;;;;;19.37;5.93;;;11.10;99.90;;;;;;5248801;28;20233;-68
2021/09/23 00:36:07;;;;;;;21.10;5.53;;;11.10;99.90;;;;;;5248708;28;20205;-64
2021/09/23 00:38:42;;;;;;;15.63;6.87;;;11.10;99.90;;;;;;5248619;28;20231;-63
2021/09/23 00:41:16;;;;;;;18.40;6.07;;;11.20;99.90;;;;;;5248364;28;20215;-67
2021/09/23 00:43:48;;;;;;;20.87;6.73;;;11.20;99.90;;;;;;5250723;28;20515;-65
2021/09/23 00:46:20;;;;;;;17.67;5.43;;;11.20;99.90;;;;;;5252884;28;20204;-69
2021/09/23 00:48:52;;;;;;;26.17;5.83;;;11.20;99.90;;;;;;5251674;28;20641;-65
2021/09/23 00:51:24;;;;;;;17.27;5.53;;;11.20;99.90;;;;;;5252744;28;20335;-68
2021/09/23 00:53:57;;;;;;;14.37;6.23;;;11.20;99.90;;;;;;5252638;28;20665;-69
2021/09/23 00:56:29;;;;;;;15.33;5.83;;;11.30;99.90;;;;;;5251301;28;20233;-68
2021/09/23 00:59:01;;;;;;;20.73;6.20;;;11.30;99.90;;;;;;5253828;28;20691;-68
2021/09/23 01:01:33;;;;;;;16.97;5.10;;;11.30;99.90;;;;;;5251059;28;20236;-68
2021/09/23 01:04:05;;;;;;;19.73;5.40;;;11.30;99.90;;;;;;5252389;28;20228;-65
2021/09/23 01:06:37;;;;;;;20.13;5.97;;;11.30;99.90;;;;;;5252379;28;20212;-68
2021/09/23 01:09:09;;;;;;;14.67;4.63;;;11.40;99.90;;;;;;5252533;28;20221;-68
2021/09/23 01:11:41;;;;;;;12.27;4.77;;;11.40;99.90;;;;;;5253009;28;20284;-67
2021/09/23 01:14:16;;;;;;;17.73;5.77;;;11.40;99.90;;;;;;5252895;28;20233;-70
2021/09/23 01:16:48;;;;;;;12.93;4.87;;;11.40;99.90;;;;;;5252284;28;20236;-65
2021/09/23 01:19:20;;;;;;;19.77;6.10;;;11.50;99.90;;;;;;5252295;28;20256;-69
2021/09/23 01:21:52;;;;;;;18.93;6.07;;;11.50;99.90;;;;;;5252206;28;20217;-66
2021/09/23 01:24:25;;;;;;;18.03;6.00;;;11.50;99.90;;;;;;5252046;28;20327;-67
2021/09/23 01:26:57;;;;;;;19.60;5.50;;;11.50;99.90;;;;;;5252096;28;20304;-65
2021/09/23 01:29:32;;;;;;;18.53;5.20;;;11.50;99.90;;;;;;5251845;28;20233;-68
2021/09/23 01:32:07;;;;;;;19.27;5.37;;;11.50;99.90;;;;;;5251979;28;20200;-69
2021/09/23 01:34:39;;;;;;;20.07;5.40;;;11.50;99.90;;;;;;5252289;28;20559;-66
2021/09/23 01:37:14;;;;;;;19.63;4.80;;;11.60;99.90;;;;;;5251938;28;20240;-68
2021/09/23 01:39:46;;;;;;;16.77;4.90;;;11.60;99.90;;;;;;5251805;28;20232;-70
2021/09/23 01:42:18;;;;;;;16.27;5.20;;;11.60;99.90;;;;;;5251815;28;20278;-70
2021/09/23 01:44:51;;;;;;;18.73;4.67;;;11.60;99.90;;;;;;5251276;28;20327;-69
2021/09/23 01:47:23;;;;;;;13.53;5.07;;;11.60;99.90;;;;;;5251484;28;20204;-68
2021/09/23 01:49:55;;;;;;;19.37;5.17;;;11.60;99.90;;;;;;5251277;28;20229;-69
2021/09/23 01:52:27;;;;;;;14.43;4.90;;;11.60;99.90;;;;;;5251878;28;20296;-71
2021/09/23 01:54:59;;;;;;;24.37;5.70;;;11.60;99.90;;;;;;5250919;28;20229;-66
2021/09/23 01:57:33;;;;;;;16.80;5.03;;;11.70;99.90;;;;;;5250519;28;20204;-66
2021/09/23 02:00:08;;;;;;;14.23;4.83;;;11.70;99.90;;;;;;5251053;28;20250;-65
2021/09/23 02:02:41;;;;;;;23.97;5.40;;;11.70;99.90;;;;;;5251078;28;20209;-67
2021/09/23 02:05:16;;;;;;;21.70;5.50;;;11.70;99.90;;;;;;5251374;28;20717;-67
2021/09/23 02:07:48;;;;;;;15.10;5.33;;;11.70;99.90;;;;;;5251437;28;20200;-68
2021/09/23 02:10:20;;;;;;;15.03;4.83;;;11.70;99.90;;;;;;5250164;28;20236;-63
2021/09/23 02:12:55;;;;;;;15.80;4.33;;;11.60;99.90;;;;;;5250851;28;20218;-68
2021/09/23 02:15:27;;;;;;;16.27;5.03;;;11.60;99.90;;;;;;5251030;28;20606;-65
2021/09/23 02:18:02;;;;;;;11.27;4.40;;;11.60;99.90;;;;;;5251155;28;20262;-68
2021/09/23 02:20:33;;;;;;;16.17;4.70;;;11.60;99.90;;;;;;5250772;28;20228;-67
2021/09/23 02:23:08;;;;;;;11.97;4.67;;;11.50;99.90;;;;;;5251308;28;20215;-65
2021/09/23 02:25:40;;;;;;;13.43;4.67;;;11.50;99.90;;;;;;5250516;28;20243;-71
2021/09/23 02:28:12;;;;;;;16.23;5.40;;;11.50;99.90;;;;;;5251682;28;20704;-67
2021/09/23 02:30:44;;;;;;;16.10;5.30;;;11.50;99.90;;;;;;5252273;28;20228;-68
2021/09/23 02:33:16;;;;;;;15.10;5.37;;;11.50;99.90;;;;;;5250992;28;20228;-67
2021/09/23 02:35:51;;;;;;;16.47;4.80;;;11.40;99.90;;;;;;5251009;28;20291;-71
2021/09/23 02:38:26;;;;;;;22.40;6.20;;;11.50;99.90;;;;;;5249723;28;20231;-66
2021/09/23 02:40:58;;;;;;;19.73;5.90;;;11.50;99.90;;;;;;5249960;28;20236;-64
2021/09/23 02:43:32;;;;;;;25.47;6.17;;;11.50;99.90;;;;;;5250587;28;20212;-71
2021/09/23 02:46:07;;;;;;;17.83;5.57;;;11.50;99.90;;;;;;5252477;28;20323;-67
2021/09/23 02:48:39;;;;;;;16.10;5.87;;;11.60;99.90;;;;;;5250311;28;20212;-66
2021/09/23 02:51:11;;;;;;;16.47;6.43;;;11.60;99.90;;;;;;5250195;28;20248;-67
2021/09/23 02:53:45;;;;;;;16.07;5.43;;;11.60;99.90;;;;;;5250299;28;20596;-64
2021/09/23 02:56:21;;;;;;;21.90;6.63;;;11.60;99.90;;;;;;5249690;28;20210;-66
2021/09/23 02:58:53;;;;;;;23.00;6.50;;;11.60;99.90;;;;;;5250485;28;20192;-66
2021/09/23 03:01:25;;;;;;;20.77;6.70;;;11.50;99.90;;;;;;5249454;28;20240;-70
2021/09/23 03:03:57;;;;;;;22.77;7.00;;;11.50;99.90;;;;;;5249878;28;20203;-68
2021/09/23 03:06:29;;;;;;;21.60;7.20;;;11.50;99.90;;;;;;5249387;28;20229;-66
2021/09/23 03:09:01;;;;;;;19.70;7.17;;;11.50;99.90;;;;;;5249828;28;20291;-68
2021/09/23 03:11:36;;;;;;;21.03;7.37;;;11.50;99.90;;;;;;5249520;28;20204;-67
2021/09/23 03:14:11;;;;;;;18.63;6.53;;;11.50;99.90;;;;;;5250000;28;20204;-67
2021/09/23 03:16:47;;;;;;;25.57;7.70;;;11.50;99.90;;;;;;5249821;28;20200;-69
2021/09/23 03:19:21;;;;;;;15.83;8.00;;;11.50;99.90;;;;;;5249556;28;20253;-67
2021/09/23 03:21:54;;;;;;;21.00;7.80;;;11.60;99.90;;;;;;5248587;28;20247;-66
2021/09/23 03:24:26;;;;;;;21.00;7.80;;;11.60;99.90;;;;;;5249086;28;20240;-69
2021/09/23 03:26:58;;;;;;;17.97;7.37;;;11.60;99.90;;;;;;5248512;28;20287;-68
2021/09/23 03:29:31;;;;;;;24.23;8.80;;;11.60;99.90;;;;;;5249605;28;20201;-67
2021/09/23 03:32:03;;;;;;;22.37;8.93;;;11.60;99.90;;;;;;5249694;28;20208;-67
2021/09/23 03:34:35;;;;;;;24.27;8.83;;;11.70;99.90;;;;;;5249846;28;20541;-66
2021/09/23 03:37:08;;;;;;;18.17;8.03;;;11.70;99.90;;;;;;5249392;28;20197;-65
2021/09/23 03:39:40;;;;;;;26.50;9.37;;;11.70;99.90;;;;;;5249028;28;20270;-67
2021/09/23 03:42:12;;;;;;;27.03;9.43;;;11.80;99.90;;;;;;5248344;28;20613;-67
2021/09/23 03:44:45;;;;;;;19.80;9.40;;;11.80;99.90;;;;;;5249172;28;20204;-69
2021/09/23 03:47:19;;;;;;;23.03;10.63;;;11.80;99.90;;;;;;5248447;28;20623;-67
2021/09/23 03:49:51;;;;;;;27.87;11.27;;;11.90;99.90;;;;;;5248071;28;20232;-65
2021/09/23 03:52:23;;;;;;;22.63;11.17;;;11.90;99.90;;;;;;5249008;28;20254;-69
2021/09/23 03:54:55;;;;;;;27.33;11.30;;;11.90;99.90;;;;;;5248150;28;20636;-64
2021/09/23 03:57:27;;;;;;;30.70;11.70;;;11.90;99.90;;;;;;5249131;28;20628;-69
2021/09/23 04:00:03;;;;;;;28.53;12.93;;;12.00;99.90;;;;;;5249062;28;20619;-68
2021/09/23 04:02:35;;;;;;;33.47;12.03;;;11.90;99.90;;;;;;5247697;28;20193;-69
2021/09/23 04:05:08;;;;;;;30.33;12.10;;;12.00;99.90;;;;;;5249478;28;20303;-68
2021/09/23 04:07:40;;;;;;;26.93;11.40;;;12.00;99.90;;;;;;5248974;28;20211;-69
2021/09/23 04:10:12;;;;;;;24.97;11.87;;;11.90;99.90;;;;;;5249094;28;20311;-68
2021/09/23 04:12:44;;;;;;;30.10;12.70;;;11.90;99.90;;;;;;5231550;28;20205;-72
2021/09/23 04:15:16;;;;;;;29.13;13.13;;;11.90;99.90;;;;;;5249292;28;20542;-68
2021/09/23 04:17:48;;;;;;;23.87;11.73;;;11.80;99.90;;;;;;5251944;28;20618;-67
2021/09/23 04:20:20;;;;;;;27.63;12.37;;;11.80;99.90;;;;;;5253875;28;20243;-68
2021/09/23 04:22:54;;;;;;;24.83;13.10;;;11.70;99.90;;;;;;5253521;28;20200;-70
2021/09/23 04:25:27;;;;;;;26.60;12.53;;;11.70;99.90;;;;;;5252892;28;20264;-67
2021/09/23 04:28:01;;;;;;;24.17;13.10;;;11.70;99.90;;;;;;5252947;28;20228;-72
2021/09/23 04:30:33;;;;;;;28.00;12.67;;;11.60;99.90;;;;;;5253280;28;20554;-67
2021/09/23 04:33:05;;;;;;;30.90;14.27;;;11.60;99.90;;;;;;5252417;28;20554;-67
2021/09/23 04:35:37;;;;;;;25.33;13.47;;;11.60;99.90;;;;;;5252706;28;20267;-67
2021/09/23 04:38:17;;;;;;;22.77;12.20;;;11.60;99.90;;;;;;5253013;28;20594;-68
2021/09/23 04:40:49;;;;;;;34.07;13.97;;;11.60;99.90;;;;;;5252420;28;20238;-64
2021/09/23 04:43:21;;;;;;;32.37;13.97;;;11.60;99.90;;;;;;5251668;28;20240;-65
2021/09/23 04:45:54;;;;;;;27.60;15.10;;;11.60;99.90;;;;;;5252810;28;20617;-65
2021/09/23 04:48:26;;;;;;;27.87;13.80;;;11.60;99.90;;;;;;5252999;28;20205;-66
2021/09/23 04:50:58;;;;;;;28.33;14.00;;;11.60;99.90;;;;;;5252732;28;20263;-65
2021/09/23 04:53:29;;;;;;;25.47;14.53;;;11.60;99.90;;;;;;5253223;28;20211;-70
2021/09/23 04:56:02;;;;;;;29.83;14.03;;;11.60;99.90;;;;;;5252891;28;20228;-65
2021/09/23 04:58:34;;;;;;;34.27;15.63;;;11.70;99.90;;;;;;5253029;28;20207;-64
2021/09/23 05:01:08;;;;;;;27.10;13.80;;;11.70;99.90;;;;;;5251493;28;20240;-69
2021/09/23 05:03:41;;;;;;;25.23;13.10;;;11.70;99.90;;;;;;5252662;28;20599;-65
2021/09/23 05:06:13;;;;;;;21.43;13.30;;;11.70;99.90;;;;;;5252724;28;20237;-65
2021/09/23 05:08:45;;;;;;;23.77;13.23;;;11.70;99.90;;;;;;5252645;28;20227;-65
2021/09/23 05:11:20;;;;;;;25.63;13.77;;;11.70;99.90;;;;;;5253278;28;20733;-65
2021/09/23 05:13:52;;;;;;;24.23;12.60;;;11.80;99.90;;;;;;5252740;28;20224;-66
2021/09/23 05:16:24;;;;;;;29.40;14.60;;;11.80;99.90;;;;;;5252248;28;20209;-68
2021/09/23 05:18:58;;;;;;;28.30;14.57;;;11.80;99.90;;;;;;5252056;28;20209;-71
2021/09/23 05:21:30;;;;;;;30.77;14.60;;;11.90;99.90;;;;;;5251642;28;20243;-69
2021/09/23 05:24:09;;;;;;;24.83;14.17;;;11.90;99.90;;;;;;5251663;28;20291;-68
2021/09/23 05:26:44;;;;;;;34.00;14.23;;;12.00;99.90;;;;;;5251824;28;20570;-70
2021/09/23 05:29:18;;;;;;;25.57;13.30;;;12.00;99.90;;;;;;5250879;28;20223;-71
2021/09/23 05:31:56;;;;;;;23.63;13.30;;;12.00;99.90;;;;;;5251550;28;20580;-70
2021/09/23 05:34:28;;;;;;;25.57;13.43;;;12.10;99.90;;;;;;5251563;28;20207;-67
2021/09/23 05:37:00;;;;;;;28.13;12.70;;;12.10;99.90;;;;;;5251290;28;20229;-67
2021/09/23 05:39:35;;;;;;;24.63;11.93;;;12.20;99.90;;;;;;5250142;28;20212;-71
2021/09/23 05:42:07;;;;;;;22.27;12.17;;;12.20;99.90;;;;;;5251190;28;20569;-69
2021/09/23 05:44:39;;;;;;;27.33;12.47;;;12.30;99.90;;;;;;5251363;28;20197;-68
2021/09/23 05:47:13;;;;;;;28.03;13.10;;;12.30;99.90;;;;;;5250126;28;20229;-67
2021/09/23 05:49:45;;;;;;;22.83;12.80;;;12.30;99.90;;;;;;5251434;28;20204;-68
2021/09/23 05:52:20;;;;;;;26.43;14.17;;;12.30;99.90;;;;;;5250407;28;20343;-69
2021/09/23 05:54:52;;;;;;;29.20;13.93;;;12.30;99.90;;;;;;5251464;28;20279;-70
2021/09/23 05:57:33;;;;;;;26.13;13.57;;;12.40;99.90;;;;;;5251515;28;20233;-68
2021/09/23 06:00:10;;;;;;;26.27;12.73;;;12.40;99.90;;;;;;5251637;28;20671;-69
2021/09/23 06:02:45;;;;;;;24.90;13.37;;;12.40;99.90;;;;;;5250078;28;20627;-69
2021/09/23 06:05:20;;;;;;;28.50;13.77;;;12.30;99.90;;;;;;5250190;28;20216;-67
2021/09/23 06:07:52;;;;;;;25.67;13.43;;;12.40;99.90;;;;;;5251484;28;20562;-68
2021/09/23 06:10:24;;;;;;;23.67;13.80;;;12.40;99.90;;;;;;5251194;28;20204;-67
2021/09/23 06:12:56;;;;;;;21.70;12.30;;;12.40;99.90;;;;;;5251052;28;20562;-66
2021/09/23 06:15:28;;;;;;;27.37;14.07;;;12.40;99.90;;;;;;5251224;28;20201;-66
2021/09/23 06:18:00;;;;;;;24.33;12.80;;;12.40;99.90;;;;;;5251136;28;20221;-67
2021/09/23 06:20:32;;;;;;;28.20;13.93;;;12.40;99.90;;;;;;5251180;28;20585;-66
2021/09/23 06:23:05;;;;;;;24.00;13.53;;;12.50;99.90;;;;;;5249950;28;20229;-67
2021/09/23 06:25:38;;;;;;;25.97;12.23;;;12.60;99.90;;;;;;5251978;28;20639;-69
2021/09/23 06:28:12;;;;;;;23.07;13.27;;;12.60;99.90;;;;;;5250358;28;20243;-66
2021/09/23 06:30:44;;;;;;;24.57;12.53;;;12.70;99.90;;;;;;5250838;28;20254;-67
2021/09/23 06:33:19;;;;;;;22.63;13.10;;;12.80;99.90;;;;;;5249668;28;20229;-66
2021/09/23 06:35:53;;;;;;;23.63;12.57;;;13.00;99.90;;;;;;5250638;28;20298;-69
2021/09/23 06:38:25;;;;;;;22.27;12.40;;;13.10;99.90;;;;;;5250568;28;20233;-68
2021/09/23 06:40:57;;;;;;;24.90;12.83;;;13.20;99.90;;;;;;5249319;28;20209;-66
2021/09/23 06:43:29;;;;;;;26.33;12.30;;;13.30;99.90;;;;;;5249417;28;20239;-66
2021/09/23 06:46:03;;;;;;;24.97;13.30;;;13.30;99.90;;;;;;5250707;28;20224;-67
2021/09/23 06:48:37;;;;;;;20.70;11.93;;;13.30;99.90;;;;;;5250566;28;20235;-68
2021/09/23 06:51:14;;;;;;;25.27;12.30;;;13.30;99.90;;;;;;5250231;28;20243;-67
2021/09/23 06:53:54;;;;;;;20.63;11.73;;;13.30;99.90;;;;;;5250594;28;20310;-68
2021/09/23 06:56:26;;;;;;;18.37;11.17;;;13.30;99.90;;;;;;5249528;28;20315;-68
2021/09/23 06:58:58;;;;;;;23.03;11.67;;;13.30;99.90;;;;;;5249984;28;20315;-67
2021/09/23 07:01:32;;;;;;;23.40;11.57;;;13.40;99.90;;;;;;5249670;28;20236;-67
2021/09/23 07:04:05;;;;;;;20.07;11.47;;;13.40;99.90;;;;;;5250281;28;20697;-70
2021/09/23 07:06:39;;;;;;;22.83;11.60;;;13.50;99.90;;;;;;5249053;28;20258;-68
2021/09/23 07:09:18;;;;;;;15.97;10.77;;;13.50;99.90;;;;;;5249656;28;20278;-66
2021/09/23 07:11:53;;;;;;;24.57;11.17;;;13.60;99.90;;;;;;5250259;28;20636;-71
2021/09/23 07:14:25;;;;;;;22.60;11.97;;;13.60;99.90;;;;;;5249064;28;20228;-69
2021/09/23 07:16:57;;;;;;;20.03;11.60;;;13.70;99.90;;;;;;5249895;28;20215;-68
2021/09/23 07:19:30;;;;;;;20.47;10.47;;;13.70;99.90;;;;;;5248446;28;20233;-66
2021/09/23 07:22:05;;;;;;;24.33;11.33;;;13.70;99.90;;;;;;5249740;28;20189;-66
2021/09/23 07:24:37;;;;;;;20.63;11.67;;;13.70;99.90;;;;;;5250125;28;20627;-67
2021/09/23 07:27:09;;;;;;;25.97;11.73;;;13.70;99.90;;;;;;5249430;28;20302;-67
2021/09/23 07:29:41;;;;;;;23.57;10.27;;;13.70;99.90;;;;;;5248632;28;20324;-68
2021/09/23 07:32:15;;;;;;;18.73;10.77;;;13.70;99.90;;;;;;5248466;28;20240;-65
2021/09/23 07:34:50;;;;;;;18.13;10.80;;;13.70;99.90;;;;;;5249708;28;20228;-61
2021/09/23 07:37:22;;;;;;;21.57;12.03;;;13.70;99.90;;;;;;5247912;28;20307;-66
2021/09/23 07:39:56;;;;;;;18.00;11.23;;;13.70;99.90;;;;;;5248547;28;20244;-70
2021/09/23 07:42:28;;;;;;;21.83;12.47;;;13.70;99.90;;;;;;5248632;28;20219;-69
2021/09/23 07:45:00;;;;;;;24.10;12.87;;;13.70;99.90;;;;;;5249317;28;20271;-69
2021/09/23 07:47:32;;;;;;;18.50;10.93;;;13.80;99.90;;;;;;5247878;28;20278;-67
2021/09/23 07:50:05;;;;;;;23.10;11.33;;;13.80;99.90;;;;;;5249132;28;20225;-66
2021/09/23 07:52:37;;;;;;;20.63;11.60;;;13.90;99.90;;;;;;5247915;28;20237;-70
2021/09/23 07:55:12;;;;;;;18.37;11.23;;;13.90;99.90;;;;;;5248686;28;20264;-67
2021/09/23 07:57:44;;;;;;;26.13;11.70;;;13.90;99.90;;;;;;5248240;28;20226;-67
2021/09/23 08:00:16;;;;;;;23.37;11.37;;;13.90;99.90;;;;;;5248581;28;20251;-65
2021/09/23 08:02:51;;;;;;;20.80;11.33;;;13.90;99.90;;;;;;5245475;28;20209;-65
2021/09/23 08:05:28;;;;;;;23.70;11.83;;;13.90;99.90;;;;;;5248941;28;20228;-68
2021/09/23 08:08:01;;;;;;;24.47;11.43;;;13.90;99.90;;;;;;5232335;28;20216;-69
2021/09/23 08:10:33;;;;;;;21.60;11.13;;;13.80;99.90;;;;;;5247751;28;20256;-66
2021/09/23 08:13:08;;;;;;;25.67;11.53;;;13.90;99.90;;;;;;5249155;28;20212;-69
2021/09/23 08:15:41;;;;;;;24.27;10.70;;;13.90;99.90;;;;;;5249636;28;20205;-68
2021/09/23 08:18:15;;;;;;;29.30;11.83;;;14.00;99.90;;;;;;5247996;28;20208;-67
2021/09/23 08:20:49;;;;;;;22.80;10.07;;;14.10;99.90;;;;;;5247803;28;20688;-69
2021/09/23 08:23:22;;;;;;;23.87;11.30;;;14.30;99.90;;;;;;5248063;28;20209;-67
2021/09/23 08:25:54;;;;;;;17.30;10.43;;;14.60;99.90;;;;;;5248071;28;20232;-68
2021/09/23 08:28:28;;;;;;;19.33;10.37;;;14.80;99.90;;;;;;5247940;28;20357;-65
2021/09/23 08:31:06;;;;;;;19.73;9.70;;;14.90;99.90;;;;;;5247452;28;20224;-69
2021/09/23 08:33:41;;;;;;;18.17;9.90;;;15.00;99.90;;;;;;5249096;28;20633;-67
2021/09/23 08:36:13;;;;;;;22.93;8.60;;;14.90;99.90;;;;;;5247558;28;20311;-67
2021/09/23 08:38:47;;;;;;;24.07;10.13;;;14.90;99.90;;;;;;5248833;28;20203;-71
2021/09/23 08:41:19;;;;;;;24.90;10.83;;;14.80;99.90;;;;;;5249237;28;20613;-65
2021/09/23 08:43:51;;;;;;;19.17;9.40;;;14.70;99.90;;;;;;5249129;28;20209;-66
2021/09/23 08:46:28;;;;;;;30.63;10.40;;;14.60;99.90;;;;;;5248380;28;20259;-66
2021/09/23 08:49:03;;;;;;;20.87;9.43;;;14.60;99.90;;;;;;5248973;28;20497;-59
2021/09/23 08:51:36;;;;;;;18.80;9.67;;;14.50;99.90;;;;;;5248533;28;20714;-66
2021/09/23 08:54:08;;;;;;;20.60;9.47;;;14.40;99.90;;;;;;5248301;28;20193;-64
2021/09/23 08:56:40;;;;;;;18.27;9.57;;;14.50;99.90;;;;;;5250147;28;20252;-66
2021/09/23 08:59:18;;;;;;;21.20;10.03;;;14.40;99.90;;;;;;5248688;28;20241;-70
2021/09/23 09:01:50;;;;;;;24.17;10.87;;;14.40;99.90;;;;;;5247693;28;20252;-67
2021/09/23 09:04:33;;;;;;;17.53;10.07;;;14.40;99.90;;;;;;5249223;28;20617;-65
2021/09/23 09:07:05;;;;;;;22.27;10.53;;;14.50;99.90;;;;;;5252480;28;20319;-64
2021/09/23 09:09:44;;;;;;;20.43;10.93;;;14.50;99.90;;;;;;5252185;28;20209;-67
2021/09/23 09:12:21;;;;;;;24.43;11.27;;;14.50;99.90;;;;;;5251404;28;20282;-68
2021/09/23 09:14:54;;;;;;;27.17;11.50;;;14.60;99.90;;;;;;5251350;28;20212;-66
2021/09/23 09:17:32;;;;;;;22.73;11.07;;;14.60;99.90;;;;;;5252659;28;20312;-71
2021/09/23 09:20:10;;;;;;;22.87;12.33;;;14.60;99.90;;;;;;5252258;28;20269;-70
2021/09/23 09:22:45;;;;;;;24.37;12.00;;;14.50;99.90;;;;;;5252700;28;20263;-64
2021/09/23 09:25:19;;;;;;;19.50;11.03;;;14.60;99.90;;;;;;5252023;28;20600;-68
2021/09/23 09:27:54;;;;;;;22.43;12.00;;;14.70;99.90;;;;;;5250864;28;20242;-68
2021/09/23 09:30:28;;;;;;;20.10;11.63;;;14.80;99.90;;;;;;5252699;28;20299;-66
2021/09/23 09:33:02;;;;;;;28.30;11.53;;;14.80;99.90;;;;;;5251550;28;20232;-68
2021/09/23 09:35:37;;;;;;;25.10;12.80;;;14.90;99.90;;;;;;5253008;28;20272;-64
2021/09/23 09:38:09;;;;;;;21.47;12.03;;;14.90;99.90;;;;;;5252400;28;20323;-66
2021/09/23 09:40:43;;;;;;;24.83;11.37;;;14.90;99.90;;;;;;5250876;28;20205;-64
2021/09/23 09:43:17;;;;;;;18.77;11.87;;;14.80;99.90;;;;;;5252058;28;20204;-66
2021/09/23 09:45:49;;;;;;;22.57;11.60;;;14.70;99.90;;;;;;5251774;28;20194;-71
2021/09/23 09:48:30;;;;;;;22.03;10.93;;;14.70;99.90;;;;;;5250606;28;20311;-67
2021/09/23 09:51:04;;;;;;;27.30;12.20;;;14.80;99.90;;;;;;5251508;28;20200;-65
2021/09/23 09:53:38;;;;;;;21.97;12.27;;;14.80;99.90;;;;;;5252850;28;20197;-67
2021/09/23 09:56:21;;;;;;;20.23;11.47;;;14.70;99.90;;;;;;5251423;28;20199;-65
2021/09/23 09:59:31;;;;;;;18.23;11.97;;;14.70;99.90;;;;;;5251796;28;20260;-70
2021/09/23 10:02:03;;;;;;;21.70;12.57;;;14.70;99.90;;;;;;5207782;28;20333;-64
2021/09/23 10:04:37;;;;;;;19.53;12.07;;;14.60;99.90;;;;;;5245892;28;20220;-67
2021/09/23 10:07:12;;;;;;;20.30;11.73;;;14.60;99.90;;;;;;5250999;28;20231;-67
2021/09/23 10:09:48;;;;;;;23.93;12.00;;;14.60;99.90;;;;;;5233449;28;20234;-68
2021/09/23 10:12:23;;;;;;;22.27;13.17;;;14.60;99.90;;;;;;5251241;28;20265;-65
2021/09/23 10:14:56;;;;;;;20.47;11.83;;;14.70;99.90;;;;;;5251082;28;20350;-67
2021/09/23 10:17:30;;;;;;;21.37;11.93;;;14.60;99.90;;;;;;5251037;28;20307;-67
2021/09/23 10:20:05;;;;;;;21.77;10.40;;;14.70;99.90;;;;;;5250871;28;20331;-68
2021/09/23 10:22:38;;;;;;;22.23;11.77;;;14.70;99.90;;;;;;5233578;28;20262;-67
2021/09/23 10:25:13;;;;;;;24.97;12.40;;;14.70;99.90;;;;;;5249809;28;20232;-67
2021/09/23 10:28:03;;;;;;;17.87;12.03;;;14.70;99.90;;;;;;5250857;28;20227;-64
2021/09/23 10:30:42;;;;;;;20.70;10.50;;;14.80;99.90;;;;;;5250561;28;20225;-66
2021/09/23 10:33:14;;;;;;;22.03;10.93;;;14.80;99.90;;;;;;5250723;28;20212;-69
2021/09/23 10:35:47;;;;;;;16.97;10.83;;;14.90;99.90;;;;;;5251135;28;20643;-66
2021/09/23 10:38:22;;;;;;;24.83;12.13;;;14.90;99.90;;;;;;5250473;28;20398;-66
2021/09/23 10:40:56;;;;;;;22.47;11.83;;;14.90;99.90;;;;;;5249120;28;20225;-65
2021/09/23 10:43:29;;;;;;;23.70;11.27;;;15.00;99.90;;;;;;5250362;28;20219;-65
2021/09/23 10:46:04;;;;;;;25.10;13.43;;;15.00;99.90;;;;;;5250148;28;20256;-63
2021/09/23 10:48:37;;;;;;;19.60;11.17;;;15.00;99.90;;;;;;5249184;28;20219;-64
2021/09/23 10:51:16;;;;;;;19.37;11.13;;;15.10;99.90;;;;;;5229898;28;20224;-63
2021/09/23 10:53:52;;;;;;;21.20;9.57;;;15.20;99.90;;;;;;5230204;28;20640;-64
2021/09/23 10:56:26;;;;;;;15.70;9.63;;;15.20;99.90;;;;;;5228745;28;20225;-66
2021/09/23 10:59:01;;;;;;;20.67;10.50;;;15.20;99.90;;;;;;5228809;28;20649;-62
2021/09/23 11:01:36;;;;;;;18.57;10.20;;;15.20;99.90;;;;;;5238238;28;20703;-64
2021/09/23 11:04:31;;;;;;;19.30;9.87;;;15.30;99.90;;;;;;5249872;28;20216;-63
2021/09/23 11:07:06;;;;;;;16.17;10.47;;;15.30;99.90;;;;;;5249660;28;20285;-64
2021/09/23 11:09:38;;;;;;;19.43;10.10;;;15.30;99.90;;;;;;5250377;28;20544;-63
2021/09/23 11:12:10;;;;;;;18.73;10.27;;;15.30;99.90;;;;;;5249330;28;20229;-65
2021/09/23 11:14:43;;;;;;;20.77;10.00;;;15.30;99.90;;;;;;5249849;28;20207;-62
2021/09/23 11:17:17;;;;;;;24.20;10.50;;;15.30;99.90;;;;;;5249362;28;20550;-63
2021/09/23 11:20:06;;;;;;;20.80;9.13;;;15.40;99.90;;;;;;5249897;28;20569;-66
2021/09/23 11:22:44;;;;;;;18.67;9.90;;;15.50;99.90;;;;;;5248036;28;20297;-65
2021/09/23 11:25:25;;;;;;;16.97;10.17;;;15.50;99.90;;;;;;5247273;28;20192;-66
2021/09/23 11:27:58;;;;;;;15.17;9.23;;;15.50;99.90;;;;;;5248735;28;20240;-65
2021/09/23 11:30:33;;;;;;;19.73;9.70;;;15.60;99.90;;;;;;5250071;28;20224;-65
2021/09/23 11:33:11;;;;;;;14.57;9.43;;;15.50;99.90;;;;;;5249571;28;20652;-65
2021/09/23 11:35:46;;;;;;;17.93;10.23;;;15.60;99.90;;;;;;5228808;28;20637;-66
2021/09/23 11:38:23;;;;;;;17.63;10.13;;;15.50;99.90;;;;;;5228047;28;20312;-65
2021/09/23 11:40:57;;;;;;;17.80;10.27;;;15.50;99.90;;;;;;5227390;28;20566;-64
2021/09/23 11:43:32;;;;;;;17.73;10.60;;;15.50;99.90;;;;;;5234552;28;20228;-65
2021/09/23 11:46:06;;;;;;;17.57;10.03;;;15.50;99.90;;;;;;5249363;28;20599;-69
2021/09/23 11:48:41;;;;;;;16.40;9.73;;;15.50;99.90;;;;;;5248838;28;20248;-65
2021/09/23 11:51:18;;;;;;;14.97;9.80;;;15.50;99.90;;;;;;5248091;28;20208;-65
2021/09/23 11:53:54;;;;;;;17.77;10.27;;;15.50;99.90;;;;;;5248627;28;20631;-67
2021/09/23 11:56:26;;;;;;;20.07;10.57;;;15.40;99.90;;;;;;5247785;28;20200;-64
2021/09/23 11:58:59;;;;;;;17.83;10.70;;;15.40;99.90;;;;;;5247697;28;20235;-64
2021/09/23 12:01:34;;;;;;;20.23;10.47;;;15.40;99.90;;;;;;5248985;28;20290;-65
2021/09/23 12:04:13;;;;;;;18.50;10.77;;;15.40;99.90;;;;;;5249180;28;20234;-64
2021/09/23 12:07:00;;;;;;;14.63;10.77;;;15.30;99.90;;;;;;5248906;28;20204;-66
2021/09/23 12:09:37;;;;;;;17.57;10.63;;;15.20;99.90;;;;;;5251573;28;20236;-64
2021/09/23 12:12:09;;;;;;;16.40;10.47;;;15.20;99.90;;;;;;5248803;28;20283;-66
2021/09/23 12:14:52;;;;;;;15.87;10.37;;;15.10;99.90;;;;;;5248621;28;20225;-66
2021/09/23 12:17:27;;;;;;;18.93;11.33;;;15.10;99.90;;;;;;5246921;28;20250;-65
2021/09/23 12:20:01;;;;;;;15.53;10.43;;;15.10;99.90;;;;;;5248630;28;20232;-67
2021/09/23 12:22:35;;;;;;;18.70;10.17;;;15.00;99.90;;;;;;5248462;28;20295;-64
2021/09/23 12:25:15;;;;;;;15.07;10.30;;;15.00;99.90;;;;;;5248825;28;20319;-70
2021/09/23 12:27:47;;;;;;;18.97;10.60;;;15.00;99.90;;;;;;5248910;28;20220;-70
2021/09/23 12:30:25;;;;;;;18.47;10.40;;;15.00;99.90;;;;;;5248628;28;20228;-68
2021/09/23 12:33:02;;;;;;;17.37;10.90;;;14.90;99.90;;;;;;5248874;28;20224;-69
2021/09/23 12:35:35;;;;;;;18.43;12.00;;;15.00;99.90;;;;;;5248898;28;20558;-69
2021/09/23 12:38:10;;;;;;;15.67;10.93;;;15.00;99.90;;;;;;5250157;28;20201;-70
2021/09/23 12:40:42;;;;;;;21.63;11.97;;;15.00;99.90;;;;;;5252995;28;20204;-69
2021/09/23 12:43:18;;;;;;;19.20;12.17;;;15.00;99.90;;;;;;5251827;28;20201;-69
2021/09/23 12:46:19;;;;;;;17.80;11.03;;;15.00;99.90;;;;;;5251998;28;20246;-69
2021/09/23 12:49:14;;;;;;;18.73;11.57;;;15.00;99.90;;;;;;5244101;28;20237;-69
2021/09/23 12:51:50;;;;;;;18.43;12.60;;;15.00;99.90;;;;;;5252419;28;20576;-69
2021/09/23 12:54:25;;;;;;;19.87;13.27;;;15.00;99.90;;;;;;5252313;28;20200;-68
2021/09/23 12:57:09;;;;;;;19.73;12.53;;;15.00;99.90;;;;;;5252992;28;20219;-69
2021/09/23 12:59:41;;;;;;;21.47;15.60;;;15.00;99.90;;;;;;5252324;28;20201;-71
2021/09/23 13:02:20;;;;;;;22.90;14.10;;;15.00;99.90;;;;;;5252981;28;20193;-70
2021/09/23 13:05:12;;;;;;;19.00;14.47;;;14.90;99.90;;;;;;5252187;28;20271;-69
2021/09/23 13:07:49;;;;;;;21.13;14.23;;;14.90;99.90;;;;;;5252351;28;20551;-70